KDGW/DGW METAR and TAF weather

Enter ICAO airport designator
Station Type Date Time Source
KDGW METAR 2022/12/06 07:53 UTC NOAA

KDGW 060753Z AUTO 29006KT 10SM CLR M03/M09 A2972 RMK AO2 SLP075 T10331094


Station Type Date Time Source
KDGW Decoded METAR 2022/12/06 07:53 UTC NOAA

DOUGLAS CONVERSE COUNTY, WY, United States (KDGW) 42-48N 105-23W 1499M
Dec 06, 2022 - 02:53 AM EST / 2022.12.06 0753 UTC
Wind: from the WNW (290 degrees) at 7 MPH (6 KT):0
Visibility: 10 mile(s):0
Sky conditions: clear
Temperature: 26.1 F (-3.3 C)
Windchill: 17 F (-8 C):1
Dew Point: 15.1 F (-9.4 C)
Relative Humidity: 62%
Pressure (altimeter): 29.72 in. Hg (1006 hPa)
ob: KDGW 060753Z AUTO 29006KT 10SM CLR M03/M09 A2972 RMK AO2 SLP075 T10331094
cycle: 8

Station Type Date Time Source
KDGW TAF UTC NOAA

Error!

Example: see airport list